createdAt,value
2018-12-05T00:00:02.934Z,4.95
2018-12-05T00:00:07.137Z,4.94
2018-12-05T00:00:11.435Z,4.95
2018-12-05T00:00:15.742Z,4.94
2018-12-05T00:00:19.937Z,4.94
2018-12-05T00:00:24.234Z,4.95
2018-12-05T00:00:28.523Z,4.94
2018-12-05T00:00:32.817Z,4.94
2018-12-05T00:00:37.120Z,4.94
2018-12-05T00:00:41.418Z,4.94
2018-12-05T00:00:45.714Z,4.94
2018-12-05T00:00:50.019Z,4.93
2018-12-05T00:00:54.315Z,4.93
2018-12-05T00:00:58.613Z,4.93
2018-12-05T00:01:02.907Z,4.93
2018-12-05T00:01:07.211Z,4.93
2018-12-05T00:01:11.502Z,4.94
2018-12-05T00:01:15.791Z,4.93
2018-12-05T00:01:19.985Z,4.92
2018-12-05T00:01:24.272Z,4.93
2018-12-05T00:01:28.565Z,4.93
2018-12-05T00:01:32.867Z,4.93
2018-12-05T00:01:37.166Z,4.92
2018-12-05T00:01:41.459Z,4.93
2018-12-05T00:01:45.754Z,4.91
2018-12-05T00:01:49.863Z,4.92
2018-12-05T00:01:54.055Z,4.92
2018-12-05T00:01:58.357Z,4.92
2018-12-05T00:02:02.645Z,4.91
2018-12-05T00:02:06.847Z,4.92
2018-12-05T00:02:11.139Z,4.91
2018-12-05T00:02:15.335Z,4.91
2018-12-05T00:02:19.550Z,4.91
2018-12-05T00:02:23.839Z,4.9
2018-12-05T00:02:28.134Z,4.9
2018-12-05T00:02:32.419Z,4.9
2018-12-05T00:02:36.614Z,4.89
2018-12-05T00:02:40.905Z,4.9
2018-12-05T00:02:45.200Z,4.9
2018-12-05T00:02:49.508Z,4.89
2018-12-05T00:02:53.808Z,4.89
2018-12-05T00:02:58.100Z,4.89
2018-12-05T00:03:02.489Z,4.89
2018-12-05T00:03:06.780Z,4.89
2018-12-05T00:03:11.080Z,4.89
2018-12-05T00:03:15.377Z,4.89
2018-12-05T00:03:19.672Z,4.88
2018-12-05T00:03:23.968Z,4.88
2018-12-05T00:03:28.262Z,4.88
2018-12-05T00:03:32.617Z,4.88
2018-12-05T00:03:36.919Z,4.87
2018-12-05T00:03:41.219Z,4.87
2018-12-05T00:03:45.514Z,4.86
2018-12-05T00:03:49.807Z,4.86
2018-12-05T00:03:54.103Z,4.87
2018-12-05T00:03:58.295Z,4.86
2018-12-05T00:04:02.637Z,4.85
2018-12-05T00:04:06.932Z,4.85
2018-12-05T00:04:11.281Z,4.85
2018-12-05T00:04:15.575Z,4.84
2018-12-05T00:04:19.866Z,4.83
2018-12-05T00:04:24.159Z,4.83
2018-12-05T00:04:28.455Z,4.83
2018-12-05T00:04:32.761Z,4.83
2018-12-05T00:04:37.048Z,4.82
2018-12-05T00:04:41.389Z,4.82
2018-12-05T00:04:45.682Z,4.81
2018-12-05T00:04:49.969Z,4.82
2018-12-05T00:04:54.264Z,4.81
2018-12-05T00:04:58.553Z,4.81
2018-12-05T00:05:02.764Z,4.81
2018-12-05T00:05:07.076Z,4.8
2018-12-05T00:05:11.376Z,4.8
2018-12-05T00:05:15.666Z,4.8
2018-12-05T00:05:19.969Z,4.8
2018-12-05T00:05:24.259Z,4.79
2018-12-05T00:05:28.553Z,4.79
2018-12-05T00:05:32.845Z,4.79
2018-12-05T00:05:37.213Z,4.79
2018-12-05T00:05:41.501Z,4.78
2018-12-05T00:05:45.789Z,4.78
2018-12-05T00:05:50.076Z,4.78
2018-12-05T00:05:54.364Z,4.77
2018-12-05T00:05:58.652Z,4.78
2018-12-05T00:06:02.951Z,4.78
2018-12-05T00:06:07.255Z,4.77
2018-12-05T00:06:11.546Z,4.76
2018-12-05T00:06:15.843Z,4.76
2018-12-05T00:06:20.132Z,4.76
2018-12-05T00:06:24.427Z,4.76
2018-12-05T00:06:28.719Z,4.76
2018-12-05T00:06:33.008Z,4.76
2018-12-05T00:06:37.299Z,4.75
2018-12-05T00:06:41.588Z,4.75
2018-12-05T00:06:45.876Z,4.76
2018-12-05T00:06:50.168Z,4.76
2018-12-05T00:06:54.457Z,4.75
2018-12-05T00:06:58.647Z,4.75
2018-12-05T00:07:02.967Z,4.75
2018-12-05T00:07:07.264Z,4.75
2018-12-05T00:07:11.554Z,4.74
2018-12-05T00:07:15.844Z,4.74
2018-12-05T00:07:20.138Z,4.74
2018-12-05T00:07:24.433Z,4.75
2018-12-05T00:07:28.730Z,4.73
2018-12-05T00:07:33.022Z,4.74
2018-12-05T00:07:37.312Z,4.73
2018-12-05T00:07:41.599Z,4.74
2018-12-05T00:07:45.885Z,4.73
2018-12-05T00:07:50.174Z,4.74
2018-12-05T00:07:54.475Z,4.73
2018-12-05T00:07:58.767Z,4.73
2018-12-05T00:08:03.054Z,4.74
2018-12-05T00:08:07.343Z,4.72
2018-12-05T00:08:11.537Z,4.73
2018-12-05T00:08:15.837Z,4.73
2018-12-05T00:08:20.040Z,4.73
2018-12-05T00:08:24.328Z,4.73
2018-12-05T00:08:28.620Z,4.73
2018-12-05T00:08:32.911Z,4.72
2018-12-05T00:08:37.207Z,4.72
2018-12-05T00:08:41.537Z,4.73
2018-12-05T00:08:45.832Z,4.73
2018-12-05T00:08:50.023Z,4.73
2018-12-05T00:08:54.311Z,4.74
2018-12-05T00:08:58.609Z,4.73
2018-12-05T00:09:02.808Z,4.73
2018-12-05T00:09:07.102Z,4.72
2018-12-05T00:09:11.391Z,4.73
2018-12-05T00:09:15.687Z,4.72
2018-12-05T00:09:19.991Z,4.73
2018-12-05T00:09:24.279Z,4.73
2018-12-05T00:09:28.573Z,4.73
2018-12-05T00:09:32.768Z,4.73
2018-12-05T00:09:37.080Z,4.72
2018-12-05T00:09:41.373Z,4.72
2018-12-05T00:09:45.666Z,4.73
2018-12-05T00:09:49.966Z,4.73
2018-12-05T00:09:54.260Z,4.72
2018-12-05T00:09:58.552Z,4.73
2018-12-05T00:10:02.938Z,4.73
2018-12-05T00:10:07.232Z,4.73
2018-12-05T00:10:11.524Z,4.72
2018-12-05T00:10:15.810Z,4.72
2018-12-05T00:10:20.101Z,4.72
2018-12-05T00:10:24.398Z,4.72
2018-12-05T00:10:28.697Z,4.72
2018-12-05T00:10:32.993Z,4.72
2018-12-05T00:10:37.189Z,4.72
2018-12-05T00:10:41.490Z,4.73
2018-12-05T00:10:45.783Z,4.71
2018-12-05T00:10:49.974Z,4.72
2018-12-05T00:10:54.261Z,4.73
2018-12-05T00:10:58.552Z,4.72
2018-12-05T00:11:02.853Z,4.71
2018-12-05T00:11:07.148Z,4.72
2018-12-05T00:11:11.440Z,4.72
2018-12-05T00:11:15.728Z,4.72
2018-12-05T00:11:20.018Z,4.72
2018-12-05T00:11:24.213Z,4.72
2018-12-05T00:11:28.504Z,4.7
2018-12-05T00:11:32.793Z,4.72
2018-12-05T00:11:38.438Z,4.71
2018-12-05T00:11:42.852Z,4.71
2018-12-05T00:11:47.154Z,4.71
2018-12-05T00:11:51.443Z,4.71
2018-12-05T00:11:55.639Z,4.72
2018-12-05T00:11:59.934Z,4.71
2018-12-05T00:12:04.234Z,4.71
2018-12-05T00:12:08.589Z,4.72
2018-12-05T00:12:12.893Z,4.72
2018-12-05T00:12:17.185Z,4.71
2018-12-05T00:12:21.475Z,4.71
2018-12-05T00:12:25.675Z,4.73
2018-12-05T00:12:29.981Z,4.72
2018-12-05T00:12:34.276Z,4.71
2018-12-05T00:12:38.573Z,4.72
2018-12-05T00:12:42.954Z,4.72
2018-12-05T00:12:47.249Z,4.72
2018-12-05T00:12:51.544Z,4.72
2018-12-05T00:12:55.836Z,4.72
2018-12-05T00:13:00.125Z,4.73
2018-12-05T00:13:04.625Z,4.72
2018-12-05T00:13:08.921Z,4.72
2018-12-05T00:13:13.214Z,4.73
2018-12-05T00:13:17.511Z,4.72
2018-12-05T00:13:21.815Z,4.72
2018-12-05T00:13:26.117Z,4.72
2018-12-05T00:13:30.412Z,4.71
2018-12-05T00:13:34.713Z,4.72
2018-12-05T00:13:39.010Z,4.73
2018-12-05T00:13:43.302Z,4.71
2018-12-05T00:13:47.611Z,4.71
2018-12-05T00:13:51.801Z,4.72
2018-12-05T00:13:56.096Z,4.72
2018-12-05T00:14:00.386Z,4.73
2018-12-05T00:14:04.729Z,4.71
2018-12-05T00:14:08.930Z,4.73
2018-12-05T00:14:13.228Z,4.72
2018-12-05T00:14:17.326Z,4.72
2018-12-05T00:14:21.616Z,4.73
2018-12-05T00:14:25.914Z,4.73
2018-12-05T00:14:30.212Z,4.73
2018-12-05T00:14:34.504Z,4.72
2018-12-05T00:14:38.797Z,4.72
2018-12-05T00:14:43.088Z,4.72
2018-12-05T00:14:47.384Z,4.72
2018-12-05T00:14:51.682Z,4.73
2018-12-05T00:14:55.778Z,4.73
2018-12-05T00:15:00.069Z,4.73
2018-12-05T00:15:04.466Z,4.72
2018-12-05T00:15:08.756Z,4.72
2018-12-05T00:15:13.048Z,4.72
2018-12-05T00:15:17.347Z,4.72
2018-12-05T00:15:21.646Z,4.72
2018-12-05T00:15:25.949Z,4.72
2018-12-05T00:15:30.242Z,4.71
2018-12-05T00:15:34.538Z,4.71
2018-12-05T00:15:38.830Z,4.72
2018-12-05T00:15:43.130Z,4.71
2018-12-05T00:15:47.425Z,4.71
2018-12-05T00:15:51.724Z,4.72
2018-12-05T00:15:56.020Z,4.71
2018-12-05T00:16:00.308Z,4.71
2018-12-05T00:16:04.603Z,4.72
2018-12-05T00:16:08.897Z,4.71
2018-12-05T00:16:13.227Z,4.71
2018-12-05T00:16:17.536Z,4.7
2018-12-05T00:16:21.731Z,4.71
2018-12-05T00:16:26.025Z,4.71
2018-12-05T00:16:30.314Z,4.71
2018-12-05T00:16:34.617Z,4.71
2018-12-05T00:16:38.813Z,4.7
2018-12-05T00:16:43.110Z,4.71
2018-12-05T00:16:47.399Z,4.71
2018-12-05T00:16:51.691Z,4.7
2018-12-05T00:16:55.987Z,4.7
2018-12-05T00:17:00.278Z,4.7
2018-12-05T00:17:04.580Z,4.7
2018-12-05T00:17:08.866Z,4.7
2018-12-05T00:17:13.156Z,4.71
2018-12-05T00:17:17.466Z,4.71
2018-12-05T00:17:21.850Z,4.7
2018-12-05T00:17:26.141Z,4.7
2018-12-05T00:17:30.432Z,4.7
2018-12-05T00:17:36.531Z,4.7
2018-12-05T00:17:40.821Z,4.69
2018-12-05T00:17:45.110Z,4.69
2018-12-05T00:17:49.408Z,4.7
2018-12-05T00:17:53.611Z,4.69
2018-12-05T00:17:57.902Z,4.68
2018-12-05T00:18:02.200Z,4.69
2018-12-05T00:18:06.499Z,4.69
2018-12-05T00:18:10.791Z,4.69
2018-12-05T00:18:15.097Z,4.7
2018-12-05T00:18:19.404Z,4.69
2018-12-05T00:18:23.705Z,4.69
2018-12-05T00:18:27.999Z,4.69
2018-12-05T00:18:32.294Z,4.68
2018-12-05T00:18:36.590Z,4.69
2018-12-05T00:18:40.886Z,4.68
2018-12-05T00:18:45.186Z,4.68
2018-12-05T00:18:49.478Z,4.68
2018-12-05T00:18:53.777Z,4.68
2018-12-05T00:18:58.084Z,4.68
2018-12-05T00:19:02.493Z,4.67
2018-12-05T00:19:06.857Z,4.68
2018-12-05T00:19:11.146Z,4.66
2018-12-05T00:19:15.439Z,4.66
2018-12-05T00:19:19.634Z,4.66
2018-12-05T00:19:23.934Z,4.66
2018-12-05T00:19:28.229Z,4.66
2018-12-05T00:19:32.526Z,4.65
2018-12-05T00:19:36.820Z,4.65
2018-12-05T00:19:41.112Z,4.65
2018-12-05T00:19:45.406Z,4.66
2018-12-05T00:19:49.698Z,4.66
2018-12-05T00:19:54.006Z,4.65
2018-12-05T00:19:58.303Z,4.65
2018-12-05T00:20:02.702Z,4.65
2018-12-05T00:20:07.000Z,4.64
2018-12-05T00:20:11.289Z,4.64
2018-12-05T00:20:15.624Z,4.64
2018-12-05T00:20:19.817Z,4.65
2018-12-05T00:20:24.121Z,4.64
2018-12-05T00:20:28.421Z,4.64
2018-12-05T00:20:32.616Z,4.63
2018-12-05T00:20:36.812Z,4.63
2018-12-05T00:20:41.101Z,4.63
2018-12-05T00:20:45.403Z,4.63
2018-12-05T00:20:49.697Z,4.63
2018-12-05T00:20:54.019Z,4.63
2018-12-05T00:20:58.319Z,4.63
2018-12-05T00:21:02.663Z,4.62
2018-12-05T00:21:06.951Z,4.62
2018-12-05T00:21:11.244Z,4.63
2018-12-05T00:21:15.553Z,4.62
2018-12-05T00:21:19.844Z,4.62
2018-12-05T00:21:24.145Z,4.61
2018-12-05T00:21:28.445Z,4.62
2018-12-05T00:21:32.732Z,4.62
2018-12-05T00:21:37.029Z,4.61
2018-12-05T00:21:41.327Z,4.6
2018-12-05T00:21:45.424Z,4.61
2018-12-05T00:21:49.716Z,4.6
2018-12-05T00:21:54.003Z,4.6
2018-12-05T00:21:58.298Z,4.61
2018-12-05T00:22:02.595Z,4.6
2018-12-05T00:22:06.886Z,4.6
2018-12-05T00:22:11.188Z,4.6
2018-12-05T00:22:15.482Z,4.6
2018-12-05T00:22:19.843Z,4.6
2018-12-05T00:22:24.128Z,4.59
2018-12-05T00:22:28.319Z,4.59
2018-12-05T00:22:32.609Z,4.59
2018-12-05T00:22:36.806Z,4.58
2018-12-05T00:22:41.096Z,4.59
2018-12-05T00:22:45.413Z,4.59
2018-12-05T00:22:49.708Z,4.59
2018-12-05T00:22:54.004Z,4.59
2018-12-05T00:22:58.298Z,4.58
2018-12-05T00:23:02.591Z,4.58
2018-12-05T00:23:06.886Z,4.57
2018-12-05T00:23:11.179Z,4.57
2018-12-05T00:23:15.378Z,4.57
2018-12-05T00:23:19.668Z,4.57
2018-12-05T00:23:23.960Z,4.57
2018-12-05T00:23:28.057Z,4.57
2018-12-05T00:23:32.352Z,4.57
2018-12-05T00:23:36.643Z,4.57
2018-12-05T00:23:40.942Z,4.57
2018-12-05T00:23:45.237Z,4.57
2018-12-05T00:23:49.537Z,4.56
2018-12-05T00:23:53.825Z,4.56
2018-12-05T00:23:58.128Z,4.56
2018-12-05T00:24:02.422Z,4.55
2018-12-05T00:24:06.618Z,4.56
2018-12-05T00:24:12.553Z,4.55
2018-12-05T00:24:16.852Z,4.55
2018-12-05T00:24:21.232Z,4.55
2018-12-05T00:24:25.612Z,4.55
2018-12-05T00:24:29.815Z,4.55
2018-12-05T00:24:34.105Z,4.54
2018-12-05T00:24:38.328Z,4.55
2018-12-05T00:24:42.628Z,4.55
2018-12-05T00:24:46.931Z,4.54
2018-12-05T00:24:51.224Z,4.55
2018-12-05T00:24:55.597Z,4.54
2018-12-05T00:24:59.894Z,4.54
2018-12-05T00:25:04.254Z,4.54
2018-12-05T00:25:08.457Z,4.53
2018-12-05T00:25:12.754Z,4.54
2018-12-05T00:25:17.049Z,4.53
2018-12-05T00:25:21.250Z,4.54
2018-12-05T00:25:25.542Z,4.53
2018-12-05T00:25:29.832Z,4.53
2018-12-05T00:25:34.130Z,4.52
2018-12-05T00:25:38.421Z,4.52
2018-12-05T00:25:42.714Z,4.52
2018-12-05T00:25:47.007Z,4.53
2018-12-05T00:25:51.305Z,4.53
2018-12-05T00:25:55.600Z,4.52
2018-12-05T00:25:59.793Z,4.52
2018-12-05T00:26:04.130Z,4.52
2018-12-05T00:26:08.423Z,4.52
2018-12-05T00:26:12.747Z,4.52
2018-12-05T00:26:17.041Z,4.52
2018-12-05T00:26:21.333Z,4.52
2018-12-05T00:26:25.537Z,4.52
2018-12-05T00:26:29.784Z,4.52
2018-12-05T00:26:34.085Z,4.52
2018-12-05T00:26:38.378Z,4.52
2018-12-05T00:26:42.674Z,4.51
2018-12-05T00:26:46.961Z,4.51
2018-12-05T00:26:51.251Z,4.5
2018-12-05T00:26:55.552Z,4.51
2018-12-05T00:26:59.853Z,4.51
2018-12-05T00:27:04.203Z,4.5
2018-12-05T00:27:08.491Z,4.51
2018-12-05T00:27:12.790Z,4.5
2018-12-05T00:27:17.081Z,4.51
2018-12-05T00:27:21.372Z,4.5
2018-12-05T00:27:25.664Z,4.5
2018-12-05T00:27:29.954Z,4.5
2018-12-05T00:27:34.147Z,4.5
2018-12-05T00:27:38.478Z,4.49
2018-12-05T00:27:42.771Z,4.5
2018-12-05T00:27:47.073Z,4.49
2018-12-05T00:27:51.368Z,4.48
2018-12-05T00:27:55.662Z,4.49
2018-12-05T00:27:59.958Z,4.49
2018-12-05T00:28:04.369Z,4.48
2018-12-05T00:28:08.666Z,4.49
2018-12-05T00:28:12.957Z,4.48
2018-12-05T00:28:17.252Z,4.48
2018-12-05T00:28:21.542Z,4.48
2018-12-05T00:28:25.918Z,4.49
2018-12-05T00:28:30.213Z,4.47
2018-12-05T00:28:34.513Z,4.47
2018-12-05T00:28:38.819Z,4.48
2018-12-05T00:28:43.145Z,4.48
2018-12-05T00:28:47.441Z,4.47
2018-12-05T00:28:51.730Z,4.47
2018-12-05T00:28:56.038Z,4.47
2018-12-05T00:29:00.337Z,4.48
2018-12-05T00:29:04.640Z,4.47
2018-12-05T00:29:08.934Z,4.47
2018-12-05T00:29:13.236Z,4.47
2018-12-05T00:29:17.533Z,4.47
2018-12-05T00:29:21.827Z,4.46
2018-12-05T00:29:26.122Z,4.47
2018-12-05T00:29:30.411Z,4.46
2018-12-05T00:29:34.708Z,4.46
2018-12-05T00:29:38.999Z,4.46
2018-12-05T00:29:43.299Z,4.44
2018-12-05T00:29:47.593Z,4.45
2018-12-05T00:29:51.884Z,4.45
2018-12-05T00:29:56.179Z,4.45
2018-12-05T00:30:00.474Z,4.45
2018-12-05T00:30:04.815Z,4.45
2018-12-05T00:30:09.106Z,4.45
2018-12-05T00:30:13.311Z,4.45
2018-12-05T00:30:17.602Z,4.45
2018-12-05T00:30:21.894Z,4.44
2018-12-05T00:30:26.195Z,4.44
2018-12-05T00:30:30.532Z,4.44
2018-12-05T00:30:34.825Z,4.44
2018-12-05T00:30:39.184Z,4.44
2018-12-05T00:30:43.480Z,4.43
2018-12-05T00:30:47.773Z,4.44
2018-12-05T00:30:51.965Z,4.44
2018-12-05T00:30:56.252Z,4.43
2018-12-05T00:31:00.562Z,4.44
2018-12-05T00:31:04.761Z,4.43
2018-12-05T00:31:09.135Z,4.43
2018-12-05T00:31:13.423Z,4.43
2018-12-05T00:31:17.801Z,4.43
2018-12-05T00:31:22.088Z,4.43
2018-12-05T00:31:26.378Z,4.44
2018-12-05T00:31:30.577Z,4.43
2018-12-05T00:31:34.872Z,4.43
2018-12-05T00:31:39.172Z,4.42
2018-12-05T00:31:43.472Z,4.43
2018-12-05T00:31:47.770Z,4.42
2018-12-05T00:31:52.065Z,4.42
2018-12-05T00:31:56.361Z,4.42
2018-12-05T00:32:00.657Z,4.43
2018-12-05T00:32:04.956Z,4.43
2018-12-05T00:32:09.248Z,4.42
2018-12-05T00:32:13.549Z,4.42
2018-12-05T00:32:17.843Z,4.42
2018-12-05T00:32:22.135Z,4.41
2018-12-05T00:32:26.436Z,4.42
2018-12-05T00:32:30.631Z,4.41
2018-12-05T00:32:34.920Z,4.42
2018-12-05T00:32:39.209Z,4.41
2018-12-05T00:32:43.498Z,4.41
2018-12-05T00:32:47.788Z,4.41
2018-12-05T00:32:52.140Z,4.4
2018-12-05T00:32:56.237Z,4.4
2018-12-05T00:33:00.522Z,4.4
2018-12-05T00:33:04.812Z,4.4
2018-12-05T00:33:09.099Z,4.4
2018-12-05T00:33:13.461Z,4.4
2018-12-05T00:33:17.747Z,4.4
2018-12-05T00:33:22.046Z,4.4
2018-12-05T00:33:26.343Z,4.4
2018-12-05T00:33:30.630Z,4.4
2018-12-05T00:33:34.930Z,4.4
2018-12-05T00:33:39.221Z,4.4
2018-12-05T00:33:43.512Z,4.4
2018-12-05T00:33:47.804Z,4.39
2018-12-05T00:33:52.097Z,4.39
2018-12-05T00:33:56.388Z,4.38
2018-12-05T00:34:00.763Z,4.38
2018-12-05T00:34:05.053Z,4.39
2018-12-05T00:34:09.346Z,4.38
2018-12-05T00:34:13.638Z,4.38
2018-12-05T00:34:17.830Z,4.38
2018-12-05T00:34:22.119Z,4.38
2018-12-05T00:34:26.408Z,4.38
2018-12-05T00:34:30.598Z,4.37
2018-12-05T00:34:34.885Z,4.37
2018-12-05T00:34:39.168Z,4.38
2018-12-05T00:34:43.468Z,4.37
2018-12-05T00:34:47.801Z,4.37
2018-12-05T00:34:52.000Z,4.37
2018-12-05T00:34:56.300Z,4.37
2018-12-05T00:35:00.589Z,4.37
2018-12-05T00:35:04.786Z,4.36
2018-12-05T00:35:09.047Z,4.36
2018-12-05T00:35:13.342Z,4.37
2018-12-05T00:35:17.627Z,4.37
2018-12-05T00:35:21.926Z,4.36
2018-12-05T00:35:26.223Z,4.36
2018-12-05T00:35:30.510Z,4.37
2018-12-05T00:35:34.798Z,4.37
2018-12-05T00:35:39.083Z,4.36
2018-12-05T00:35:43.272Z,4.36
2018-12-05T00:35:47.645Z,4.37
2018-12-05T00:35:51.947Z,4.35
2018-12-05T00:35:56.237Z,4.35
2018-12-05T00:36:00.537Z,4.35
2018-12-05T00:36:04.824Z,4.36
2018-12-05T00:36:09.127Z,4.35
2018-12-05T00:36:13.419Z,4.35
2018-12-05T00:36:17.713Z,4.36
2018-12-05T00:36:22.008Z,4.36
2018-12-05T00:36:26.207Z,4.36
2018-12-05T00:36:30.503Z,4.36
2018-12-05T00:36:34.715Z,4.35
2018-12-05T00:36:39.005Z,4.35
2018-12-05T00:36:43.300Z,4.34
2018-12-05T00:36:47.586Z,4.35
2018-12-05T00:36:51.879Z,4.35
2018-12-05T00:36:56.166Z,4.35
2018-12-05T00:37:00.529Z,4.34
2018-12-05T00:37:04.967Z,4.34
2018-12-05T00:37:09.260Z,4.34
2018-12-05T00:37:13.547Z,4.34
2018-12-05T00:37:17.835Z,4.33
2018-12-05T00:37:22.135Z,4.35
2018-12-05T00:37:26.228Z,4.34
2018-12-05T00:37:30.514Z,4.34
2018-12-05T00:37:34.802Z,4.34
2018-12-05T00:37:39.091Z,4.33
2018-12-05T00:37:43.380Z,4.35
2018-12-05T00:37:47.668Z,4.34
2018-12-05T00:37:51.863Z,4.34
2018-12-05T00:37:56.063Z,4.34
2018-12-05T00:38:00.351Z,4.34
2018-12-05T00:38:04.807Z,4.35
2018-12-05T00:38:09.102Z,4.34
2018-12-05T00:38:13.392Z,4.34
2018-12-05T00:38:17.680Z,4.35
2018-12-05T00:38:21.781Z,4.35
2018-12-05T00:38:26.066Z,4.34
2018-12-05T00:38:30.355Z,4.34
2018-12-05T00:38:34.644Z,4.35
2018-12-05T00:38:38.917Z,4.34
2018-12-05T00:38:43.208Z,4.34
2018-12-05T00:38:47.494Z,4.35
2018-12-05T00:38:51.785Z,4.34
2018-12-05T00:38:56.069Z,4.33
2018-12-05T00:39:00.261Z,4.33
2018-12-05T00:39:04.546Z,4.33
2018-12-05T00:39:08.743Z,4.35
2018-12-05T00:39:13.036Z,4.35
2018-12-05T00:39:17.324Z,4.34
2018-12-05T00:39:21.614Z,4.35
2018-12-05T00:39:25.832Z,4.35
2018-12-05T00:39:30.116Z,4.33
2018-12-05T00:39:34.408Z,4.35
2018-12-05T00:39:38.698Z,4.34
2018-12-05T00:39:42.891Z,4.34
2018-12-05T00:39:48.892Z,4.35
2018-12-05T00:39:53.191Z,4.34
2018-12-05T00:39:57.416Z,4.35
2018-12-05T00:40:01.525Z,4.34
2018-12-05T00:40:05.821Z,4.34
2018-12-05T00:40:10.120Z,4.34
2018-12-05T00:40:14.407Z,4.34
2018-12-05T00:40:18.701Z,4.33
2018-12-05T00:40:23.315Z,4.35
2018-12-05T00:40:27.603Z,4.35
2018-12-05T00:40:31.900Z,4.35
2018-12-05T00:40:36.191Z,4.35
2018-12-05T00:40:40.479Z,4.35
2018-12-05T00:40:44.769Z,4.35
2018-12-05T00:40:49.065Z,4.35
2018-12-05T00:40:53.357Z,4.35
2018-12-05T00:40:57.648Z,4.36
2018-12-05T00:41:01.838Z,4.35
2018-12-05T00:41:06.189Z,4.35
2018-12-05T00:41:10.484Z,4.35
2018-12-05T00:41:14.793Z,4.36
2018-12-05T00:41:19.080Z,4.35
2018-12-05T00:41:23.375Z,4.35
2018-12-05T00:41:27.664Z,4.34
2018-12-05T00:41:31.965Z,4.35
2018-12-05T00:41:36.255Z,4.35
2018-12-05T00:41:40.558Z,4.36
2018-12-05T00:41:44.855Z,4.35
2018-12-05T00:41:49.142Z,4.36
2018-12-05T00:41:53.334Z,4.35
2018-12-05T00:41:57.627Z,4.36
2018-12-05T00:42:01.994Z,4.35
2018-12-05T00:42:06.285Z,4.36
2018-12-05T00:42:10.573Z,4.35
2018-12-05T00:42:14.869Z,4.35
2018-12-05T00:42:19.158Z,4.35
2018-12-05T00:42:23.448Z,4.36
2018-12-05T00:42:27.739Z,4.35
2018-12-05T00:42:32.031Z,4.35
2018-12-05T00:42:36.327Z,4.35
2018-12-05T00:42:40.617Z,4.35
2018-12-05T00:42:44.909Z,4.35
2018-12-05T00:42:49.199Z,4.35
2018-12-05T00:42:53.494Z,4.36
2018-12-05T00:42:57.786Z,4.35
2018-12-05T00:43:02.085Z,4.36
2018-12-05T00:43:06.378Z,4.34
2018-12-05T00:43:10.668Z,4.35
2018-12-05T00:43:14.954Z,4.35
2018-12-05T00:43:19.252Z,4.35
2018-12-05T00:43:23.540Z,4.35
2018-12-05T00:43:27.855Z,4.35
2018-12-05T00:43:32.151Z,4.35
2018-12-05T00:43:36.436Z,4.35
2018-12-05T00:43:40.722Z,4.36
2018-12-05T00:43:44.922Z,4.35
2018-12-05T00:43:49.218Z,4.34
2018-12-05T00:43:53.602Z,4.35
2018-12-05T00:43:57.805Z,4.35
2018-12-05T00:44:02.094Z,4.35
2018-12-05T00:44:06.381Z,4.35
2018-12-05T00:44:10.675Z,4.35
2018-12-05T00:44:14.970Z,4.35
2018-12-05T00:44:19.261Z,4.35
2018-12-05T00:44:23.552Z,4.34
2018-12-05T00:44:27.838Z,4.35
2018-12-05T00:44:32.128Z,4.34
2018-12-05T00:44:36.228Z,4.34
2018-12-05T00:44:40.517Z,4.34
2018-12-05T00:44:44.807Z,4.34
2018-12-05T00:44:49.095Z,4.34
2018-12-05T00:44:53.390Z,4.34
2018-12-05T00:44:57.682Z,4.34
2018-12-05T00:45:01.981Z,4.33
2018-12-05T00:45:06.277Z,4.34
2018-12-05T00:45:10.572Z,4.33
2018-12-05T00:45:14.864Z,4.34
2018-12-05T00:45:19.156Z,4.34
2018-12-05T00:45:23.467Z,4.34
2018-12-05T00:45:27.763Z,4.33
2018-12-05T00:45:32.062Z,4.33
2018-12-05T00:45:36.352Z,4.33
2018-12-05T00:45:40.649Z,4.34
2018-12-05T00:45:44.941Z,4.33
2018-12-05T00:45:49.234Z,4.33
2018-12-05T00:45:53.524Z,4.32
2018-12-05T00:45:57.814Z,4.33
2018-12-05T00:46:02.111Z,4.32
2018-12-05T00:46:06.415Z,4.33
2018-12-05T00:46:10.710Z,4.33
2018-12-05T00:46:15.005Z,4.33
2018-12-05T00:46:19.295Z,4.32
2018-12-05T00:46:23.592Z,4.33
2018-12-05T00:46:27.883Z,4.33
2018-12-05T00:46:32.085Z,4.33
2018-12-05T00:46:36.386Z,4.33
2018-12-05T00:46:40.679Z,4.32
2018-12-05T00:46:44.965Z,4.32
2018-12-05T00:46:49.337Z,4.32
2018-12-05T00:46:53.627Z,4.32
2018-12-05T00:46:57.918Z,4.31
2018-12-05T00:47:02.208Z,4.3
2018-12-05T00:47:06.403Z,4.31
2018-12-05T00:47:10.699Z,4.29
2018-12-05T00:47:14.995Z,4.3
2018-12-05T00:47:19.261Z,4.3
2018-12-05T00:47:23.553Z,4.29
2018-12-05T00:47:27.743Z,4.3
2018-12-05T00:47:32.034Z,4.29
2018-12-05T00:47:36.330Z,4.3
2018-12-05T00:47:40.617Z,4.29
2018-12-05T00:47:44.907Z,4.28
2018-12-05T00:47:49.104Z,4.28
2018-12-05T00:47:53.399Z,4.28
2018-12-05T00:47:57.736Z,4.27
2018-12-05T00:48:02.030Z,4.28
2018-12-05T00:48:06.328Z,4.27
2018-12-05T00:48:10.614Z,4.27
2018-12-05T00:48:14.907Z,4.27
2018-12-05T00:48:19.199Z,4.26
2018-12-05T00:48:23.493Z,4.27
2018-12-05T00:48:27.784Z,4.26
2018-12-05T00:48:31.973Z,4.26
2018-12-05T00:48:36.266Z,4.25
2018-12-05T00:48:40.559Z,4.25
2018-12-05T00:48:44.882Z,4.26
2018-12-05T00:48:49.175Z,4.25
2018-12-05T00:48:53.367Z,4.25
2018-12-05T00:48:57.655Z,4.24
2018-12-05T00:49:01.954Z,4.24
2018-12-05T00:49:06.343Z,4.24
2018-12-05T00:49:10.628Z,4.24
2018-12-05T00:49:14.928Z,4.24
2018-12-05T00:49:19.220Z,4.23
2018-12-05T00:49:23.507Z,4.23
2018-12-05T00:49:27.799Z,4.23
2018-12-05T00:49:32.088Z,4.22
2018-12-05T00:49:36.277Z,4.23
2018-12-05T00:49:40.563Z,4.21
2018-12-05T00:49:44.852Z,4.22
2018-12-05T00:49:49.139Z,4.22
2018-12-05T00:49:53.432Z,4.22
2018-12-05T00:49:57.724Z,4.21
2018-12-05T00:50:02.017Z,4.21
2018-12-05T00:50:06.305Z,4.21
2018-12-05T00:50:10.595Z,4.21
2018-12-05T00:50:14.883Z,4.22
2018-12-05T00:50:19.170Z,4.2
2018-12-05T00:50:23.461Z,4.21
2018-12-05T00:50:27.752Z,4.21
2018-12-05T00:50:31.961Z,4.2
2018-12-05T00:50:36.252Z,4.2
2018-12-05T00:50:40.551Z,4.2
2018-12-05T00:50:44.745Z,4.2
2018-12-05T00:50:49.034Z,4.2
2018-12-05T00:50:53.324Z,4.2
2018-12-05T00:50:57.616Z,4.2
2018-12-05T00:51:01.902Z,4.19
2018-12-05T00:51:06.197Z,4.2
2018-12-05T00:51:10.488Z,4.18
2018-12-05T00:51:14.775Z,4.18
2018-12-05T00:51:18.968Z,4.18
2018-12-05T00:51:23.261Z,4.17
2018-12-05T00:51:27.551Z,4.17
2018-12-05T00:51:31.854Z,4.17
2018-12-05T00:51:36.153Z,4.16
2018-12-05T00:51:40.445Z,4.17
2018-12-05T00:51:44.778Z,4.16
2018-12-05T00:51:49.067Z,4.15
2018-12-05T00:51:53.269Z,4.15
2018-12-05T00:51:57.556Z,4.15
2018-12-05T00:52:01.848Z,4.14
2018-12-05T00:52:06.145Z,4.15
2018-12-05T00:52:10.441Z,4.14
2018-12-05T00:52:14.733Z,4.14
2018-12-05T00:52:19.029Z,4.14
2018-12-05T00:52:23.395Z,4.12
2018-12-05T00:52:27.592Z,4.12
2018-12-05T00:52:31.791Z,4.12
2018-12-05T00:52:36.084Z,4.12
2018-12-05T00:52:40.374Z,4.11
2018-12-05T00:52:44.566Z,4.11
2018-12-05T00:52:48.758Z,4.11
2018-12-05T00:52:53.120Z,4.11
2018-12-05T00:52:57.408Z,4.1
2018-12-05T00:53:01.704Z,4.11
2018-12-05T00:53:05.991Z,4.1
2018-12-05T00:53:10.282Z,4.09
2018-12-05T00:53:14.570Z,4.1
2018-12-05T00:53:18.869Z,4.1
2018-12-05T00:53:22.973Z,4.09
2018-12-05T00:53:27.266Z,4.09
2018-12-05T00:53:31.554Z,4.09
2018-12-05T00:53:35.844Z,4.09
2018-12-05T00:53:40.141Z,4.08
2018-12-05T00:53:44.431Z,4.09
2018-12-05T00:53:48.736Z,4.08
2018-12-05T00:53:53.024Z,4.07
2018-12-05T00:53:57.317Z,4.07
2018-12-05T00:54:01.524Z,4.07
2018-12-05T00:54:05.822Z,4.07
2018-12-05T00:54:10.119Z,4.07
2018-12-05T00:54:14.412Z,4.08
2018-12-05T00:54:18.613Z,4.06
2018-12-05T00:54:22.903Z,4.06
2018-12-05T00:54:27.177Z,4.07
2018-12-05T00:54:31.474Z,4.07
2018-12-05T00:54:35.772Z,4.07
2018-12-05T00:54:40.067Z,4.07
2018-12-05T00:54:45.895Z,4.06
2018-12-05T00:54:50.279Z,4.05
2018-12-05T00:54:54.578Z,4.06
2018-12-05T00:54:58.877Z,4.06
2018-12-05T00:55:03.237Z,4.05
2018-12-05T00:55:07.529Z,4.06
2018-12-05T00:55:11.824Z,4.06
2018-12-05T00:55:16.127Z,4.05
2018-12-05T00:55:20.418Z,4.04
2018-12-05T00:55:24.708Z,4.05
2018-12-05T00:55:29.006Z,4.05
2018-12-05T00:55:33.296Z,4.05
2018-12-05T00:55:37.589Z,4.05
2018-12-05T00:55:41.885Z,4.03
2018-12-05T00:55:46.179Z,4.04
2018-12-05T00:55:50.474Z,4.04
2018-12-05T00:55:54.769Z,4.03
2018-12-05T00:55:59.083Z,4.04
2018-12-05T00:56:03.380Z,4.04
2018-12-05T00:56:07.676Z,4.03
2018-12-05T00:56:11.972Z,4.03
2018-12-05T00:56:16.258Z,4.03
2018-12-05T00:56:20.550Z,4.01
2018-12-05T00:56:24.746Z,4.01
2018-12-05T00:56:28.844Z,4.02
2018-12-05T00:56:33.054Z,4.01
2018-12-05T00:56:37.348Z,4.02
2018-12-05T00:56:41.646Z,4.02
2018-12-05T00:56:45.944Z,4.01
2018-12-05T00:56:50.233Z,4.01
2018-12-05T00:56:54.529Z,4.01
2018-12-05T00:56:58.731Z,4.01
2018-12-05T00:57:03.029Z,4
2018-12-05T00:57:07.324Z,4
2018-12-05T00:57:11.616Z,4
2018-12-05T00:57:15.909Z,4
2018-12-05T00:57:20.212Z,3.99
2018-12-05T00:57:24.500Z,4